Barton, South Carolina
Current Conditions -  °F | °C
As of 8:55 AM on Saturday 20 Dec 2014 (Local Time) from KAQX Reporting Station
Light Rain Light Rain  
Wind Chill: 48°   Ceiling: 5000
Heat Index: 48°   Visibility: 3mi
Dew Point: 48°   Wind: 3mph
Humidity: 100%   Direction: 20°NNE
Pressure: 30.2"   Gusts: NA
Location:  32.8821°N, 81.3268°W
Report Text: KAQX 201355Z AUTO 02003KT 3SM -RA FEW036 SCT044 BKN050 09/09 A3020 RMK AO2
Loading
Personal Weather Stations






























Interactive Weather Map New forecast layout! Learn more

10-Day Weather Forecast

Advertisements
Track Severe Weather on mobile